Time;durP1;ratioP1;P1;durP2;ratioP2;P2;SDS_P1;SDS_P2;PMS_P1;PMS_P2;Temp;Humidity;BMP_temperature;BMP_pressure;BME280_temperature;BME280_humidity;BME280_pressure;Samples;Min_cycle;Max_cycle;Signal;HPM_P1;HPM_P2
2022/01/17 00:01:35;;;;;;;;;;;19.30;55.80;;;;;;5052982;28;1138;-70
2022/01/17 00:04:00;;;;;;;;;;;19.30;55.80;;;;;;5053769;28;1977;-70
2022/01/17 00:06:26;;;;;;;;;;;19.30;55.80;;;;;;5053384;28;1078;-70
2022/01/17 00:08:51;;;;;;;;;;;19.30;55.80;;;;;;5053130;28;1206;-70
2022/01/17 00:11:17;;;;;;;;;;;19.30;55.90;;;;;;5053441;28;1055;-70
2022/01/17 00:13:43;;;;;;;;;;;19.30;55.90;;;;;;5052370;28;1413;-70
2022/01/17 00:16:12;;;;;;;;;;;19.30;55.90;;;;;;5035652;28;1326;-71
2022/01/17 00:21:04;;;;;;;;;;;19.20;55.90;;;;;;5052335;28;1260;-70
2022/01/17 00:23:29;;;;;;;;;;;19.30;56.00;;;;;;5053465;28;1910;-70
2022/01/17 00:25:54;;;;;;;;;;;19.20;56.00;;;;;;5053449;28;1329;-70
2022/01/17 00:28:20;;;;;;;;;;;19.20;56.00;;;;;;5053406;28;1356;-69
2022/01/17 00:30:45;;;;;;;;;;;19.20;56.00;;;;;;5052757;28;1312;-70
2022/01/17 00:33:11;;;;;;;;;;;19.20;56.00;;;;;;5034159;28;1294;-70
2022/01/17 00:35:36;;;;;;;;;;;19.20;56.00;;;;;;5052746;28;1328;-70
2022/01/17 00:38:02;;;;;;;;;;;19.20;56.00;;;;;;5052864;28;1359;-70
2022/01/17 00:40:27;;;;;;;;;;;19.20;56.10;;;;;;5052683;28;1072;-70
2022/01/17 00:42:52;;;;;;;;;;;19.20;56.10;;;;;;5053238;28;1903;-70
2022/01/17 00:45:24;;;;;;;;;;;19.20;56.10;;;;;;5052696;28;1036;-70
2022/01/17 00:47:50;;;;;;;;;;;19.20;56.10;;;;;;5052050;28;1433;-70
2022/01/17 00:50:16;;;;;;;;;;;19.20;56.20;;;;;;5052006;28;1421;-70
2022/01/17 00:52:41;;;;;;;;;;;19.20;56.20;;;;;;5052445;28;1133;-70
2022/01/17 00:55:07;;;;;;;;;;;19.20;56.80;;;;;;5052772;28;1325;-69
2022/01/17 00:57:32;;;;;;;;;;;19.20;56.20;;;;;;5052710;28;1361;-70
2022/01/17 00:59:58;;;;;;;;;;;19.20;56.20;;;;;;5053020;28;1310;-70
2022/01/17 01:02:23;;;;;;;;;;;19.10;56.20;;;;;;5051428;28;1092;-70
2022/01/17 01:04:49;;;;;;;;;;;19.10;56.20;;;;;;5051523;28;1977;-70
2022/01/17 01:07:14;;;;;;;;;;;19.10;56.20;;;;;;5052370;28;1225;-70
2022/01/17 01:09:52;;;;;;;;;;;19.10;56.20;;;;;;5052597;28;1420;-69
2022/01/17 01:12:17;;;;;;;;;;;19.10;56.20;;;;;;5035533;28;1048;-70
2022/01/17 01:14:43;;;;;;;;;;;19.10;56.20;;;;;;5052831;28;1289;-70
2022/01/17 01:17:19;;;;;;;;;;;19.10;56.30;;;;;;5052448;28;1373;-70
2022/01/17 01:19:45;;;;;;;;;;;19.10;56.30;;;;;;5051564;28;1283;-70
2022/01/17 01:27:50;;;;;;;;;;;19.10;56.30;;;;;;5052151;28;1287;-70
2022/01/17 01:30:18;;;;;;;;;;;19.10;56.40;;;;;;5050633;28;1080;-70
2022/01/17 01:32:49;;;;;;;;;;;19.10;56.40;;;;;;5050799;28;1299;-70
2022/01/17 01:35:17;;;;;;;;;;;19.10;56.40;;;;;;5052197;28;1150;-70
2022/01/17 01:37:44;;;;;;;;;;;19.10;56.40;;;;;;5052285;28;1415;-70
2022/01/17 01:40:10;;;;;;;;;;;19.10;56.40;;;;;;5051566;28;1361;-70
2022/01/17 01:42:35;;;;;;;;;;;19.00;56.40;;;;;;5050849;28;1040;-70
2022/01/17 01:45:02;;;;;;;;;;;19.10;56.40;;;;;;5052295;28;1898;-70
2022/01/17 01:47:27;;;;;;;;;;;19.00;56.40;;;;;;5052504;28;1315;-71
2022/01/17 01:49:53;;;;;;;;;;;19.00;56.40;;;;;;5052839;28;1431;-70
2022/01/17 01:52:18;;;;;;;;;;;19.00;56.40;;;;;;5034302;28;1093;-70
2022/01/17 01:54:44;;;;;;;;;;;19.00;56.50;;;;;;5052000;28;1140;-70
2022/01/17 01:57:09;;;;;;;;;;;19.00;56.50;;;;;;5051652;28;1270;-71
2022/01/17 01:59:37;;;;;;;;;;;19.00;56.50;;;;;;5052067;28;1087;-70
2022/01/17 02:02:02;;;;;;;;;;;19.00;56.50;;;;;;5050237;28;1170;-71
2022/01/17 02:04:29;;;;;;;;;;;19.00;56.50;;;;;;5050847;28;1914;-70
2022/01/17 02:06:55;;;;;;;;;;;19.00;56.50;;;;;;5051811;28;1258;-70
2022/01/17 02:09:23;;;;;;;;;;;19.00;56.50;;;;;;5051458;28;1286;-70
2022/01/17 02:11:48;;;;;;;;;;;19.00;56.60;;;;;;5051961;28;1397;-70
2022/01/17 02:14:14;;;;;;;;;;;19.00;56.60;;;;;;5052005;28;1256;-70
2022/01/17 02:16:41;;;;;;;;;;;19.00;56.60;;;;;;5051819;28;1071;-70
2022/01/17 02:19:06;;;;;;;;;;;19.00;56.60;;;;;;5054306;28;1350;-70
2022/01/17 02:21:34;;;;;;;;;;;19.00;56.60;;;;;;5055028;28;1283;-70
2022/01/17 02:24:00;;;;;;;;;;;19.00;56.60;;;;;;5055465;28;1961;-70
2022/01/17 02:26:25;;;;;;;;;;;19.00;56.60;;;;;;5055046;28;1084;-70
2022/01/17 02:28:51;;;;;;;;;;;19.00;56.60;;;;;;5055547;28;1417;-70
2022/01/17 02:31:17;;;;;;;;;;;19.00;56.70;;;;;;5055147;28;1452;-70
2022/01/17 02:33:42;;;;;;;;;;;19.00;56.70;;;;;;5055535;28;1368;-70
2022/01/17 02:36:08;;;;;;;;;;;18.90;56.60;;;;;;5054196;28;1174;-70
2022/01/17 02:38:33;;;;;;;;;;;19.00;56.70;;;;;;5055270;28;1351;-70
2022/01/17 02:40:59;;;;;;;;;;;18.90;56.60;;;;;;5055075;28;1389;-71
2022/01/17 02:43:26;;;;;;;;;;;19.00;56.70;;;;;;5055176;28;1918;-71
2022/01/17 02:48:17;;;;;;;;;;;18.90;56.70;;;;;;5054211;28;1398;-71
2022/01/17 02:50:42;;;;;;;;;;;18.90;56.70;;;;;;5054054;28;1352;-70
2022/01/17 02:53:09;;;;;;;;;;;18.90;56.70;;;;;;5053248;28;1270;-71
2022/01/17 02:55:34;;;;;;;;;;;18.90;56.70;;;;;;5053893;28;1063;-70
2022/01/17 02:58:00;;;;;;;;;;;18.90;56.70;;;;;;5053704;28;1369;-71
2022/01/17 03:00:25;;;;;;;;;;;18.90;56.70;;;;;;5054247;28;1338;-71
2022/01/17 03:02:51;;;;;;;;;;;18.90;56.80;;;;;;5054755;28;1408;-71
2022/01/17 03:05:16;;;;;;;;;;;18.90;56.80;;;;;;5055268;28;1906;-71
2022/01/17 03:07:42;;;;;;;;;;;18.90;56.80;;;;;;5053426;28;1303;-70
2022/01/17 03:10:14;;;;;;;;;;;18.90;56.80;;;;;;5053804;28;1090;-71
2022/01/17 03:12:40;;;;;;;;;;;18.90;56.80;;;;;;5053667;28;1174;-71
2022/01/17 03:15:06;;;;;;;;;;;18.90;56.80;;;;;;5053401;28;1162;-70
2022/01/17 03:17:31;;;;;;;;;;;18.90;56.80;;;;;;5054565;28;1301;-70
2022/01/17 03:19:56;;;;;;;;;;;18.90;56.80;;;;;;5054479;28;1048;-71
2022/01/17 03:22:22;;;;;;;;;;;18.90;56.80;;;;;;5053902;28;1381;-71
2022/01/17 03:24:47;;;;;;;;;;;18.90;56.80;;;;;;5054347;28;1902;-70
2022/01/17 03:27:13;;;;;;;;;;;18.90;56.80;;;;;;5054938;28;1273;-71
2022/01/17 03:29:38;;;;;;;;;;;18.80;56.80;;;;;;5052328;28;1075;-71
2022/01/17 03:32:04;;;;;;;;;;;18.80;56.80;;;;;;5053939;28;1061;-71
2022/01/17 03:34:29;;;;;;;;;;;18.80;56.80;;;;;;5054367;28;1129;-70
2022/01/17 03:39:30;;;;;;;;;;;18.80;56.90;;;;;;5080733;22;1817;-70
2022/01/17 03:41:55;;;;;;;;;;;18.80;56.90;;;;;;5044943;28;1706;-70
2022/01/17 03:44:21;;;;;;;;;;;18.80;56.90;;;;;;5047427;28;1907;-70
2022/01/17 03:46:46;;;;;;;;;;;18.80;56.90;;;;;;5054290;28;1369;-71
2022/01/17 03:49:11;;;;;;;;;;;18.90;56.90;;;;;;5052391;28;1304;-71
2022/01/17 03:51:37;;;;;;;;;;;18.80;56.90;;;;;;5054866;28;1103;-70
2022/01/17 03:54:02;;;;;;;;;;;18.80;56.90;;;;;;5053217;28;1134;-70
2022/01/17 03:56:28;;;;;;;;;;;18.80;56.90;;;;;;5054574;28;1031;-70
2022/01/17 03:58:53;;;;;;;;;;;18.80;56.90;;;;;;5053827;28;1218;-71
2022/01/17 04:01:19;;;;;;;;;;;18.80;56.90;;;;;;5049771;28;1059;-70
2022/01/17 04:03:46;;;;;;;;;;;18.80;56.90;;;;;;5042609;28;1901;-71
2022/01/17 04:06:14;;;;;;;;;;;18.80;57.00;;;;;;5053179;28;1119;-71
2022/01/17 04:08:40;;;;;;;;;;;18.80;56.90;;;;;;5034647;28;1292;-71
2022/01/17 04:11:05;;;;;;;;;;;18.80;57.00;;;;;;5033012;28;1347;-71
2022/01/17 04:13:32;;;;;;;;;;;18.80;57.00;;;;;;5042622;28;1095;-71
2022/01/17 04:15:58;;;;;;;;;;;18.80;57.00;;;;;;5053042;28;1411;-71
2022/01/17 04:18:24;;;;;;;;;;;18.80;57.00;;;;;;5053917;28;1408;-71
2022/01/17 04:20:50;;;;;;;;;;;18.80;57.10;;;;;;5053932;28;1146;-71
2022/01/17 04:23:15;;;;;;;;;;;18.80;57.00;;;;;;5053742;28;1902;-70
2022/01/17 04:25:41;;;;;;;;;;;18.80;57.00;;;;;;5053943;28;1071;-70
2022/01/17 04:28:07;;;;;;;;;;;18.80;57.10;;;;;;5053325;28;1357;-71
2022/01/17 04:30:32;;;;;;;;;;;18.80;57.10;;;;;;5053982;28;1337;-70
2022/01/17 04:32:58;;;;;;;;;;;18.80;57.10;;;;;;5053760;28;1099;-70
2022/01/17 04:35:24;;;;;;;;;;;18.80;57.10;;;;;;5052619;28;1078;-70
2022/01/17 04:37:51;;;;;;;;;;;18.80;57.10;;;;;;5053347;28;1252;-70
2022/01/17 04:40:17;;;;;;;;;;;18.80;57.10;;;;;;5053097;28;1371;-70
2022/01/17 04:42:45;;;;;;;;;;;18.70;57.00;;;;;;5051829;28;1271;-70
2022/01/17 04:45:13;;;;;;;;;;;18.80;57.10;;;;;;5053442;28;1971;-70
2022/01/17 04:47:39;;;;;;;;;;;18.80;57.10;;;;;;5052135;28;1310;-71
2022/01/17 04:50:05;;;;;;;;;;;18.70;57.10;;;;;;5052167;28;1319;-70
2022/01/17 04:52:30;;;;;;;;;;;18.70;57.10;;;;;;5053522;28;1408;-70
2022/01/17 04:55:00;;;;;;;;;;;18.80;57.20;;;;;;5051960;28;1064;-71
2022/01/17 04:57:26;;;;;;;;;;;18.70;57.10;;;;;;5053118;28;1275;-71
2022/01/17 04:59:51;;;;;;;;;;;18.70;57.10;;;;;;5053228;28;1055;-70
2022/01/17 05:02:17;;;;;;;;;;;18.70;57.10;;;;;;5053461;28;1184;-71
2022/01/17 05:04:45;;;;;;;;;;;18.70;57.10;;;;;;5051774;28;1903;-71
2022/01/17 05:07:11;;;;;;;;;;;18.70;57.10;;;;;;5051896;28;1334;-70
2022/01/17 05:09:38;;;;;;;;;;;18.80;57.20;;;;;;5052749;28;1341;-70
2022/01/17 05:12:04;;;;;;;;;;;18.80;57.10;;;;;;5053224;28;1052;-70
2022/01/17 05:14:29;;;;;;;;;;;18.80;57.10;;;;;;5053362;28;1371;-71
2022/01/17 05:17:03;;;;;;;;;;;18.90;57.00;;;;;;5053154;28;1381;-70
2022/01/17 05:19:48;;;;;;;;;;;19.00;57.00;;;;;;5052777;28;1449;-70
2022/01/17 05:22:17;;;;;;;;;;;19.10;56.90;;;;;;5052757;28;1094;-71
2022/01/17 05:24:42;;;;;;;;;;;19.20;56.80;;;;;;5052835;28;1951;-71
2022/01/17 05:27:08;;;;;;;;;;;19.30;56.60;;;;;;5052770;28;1056;-71
2022/01/17 05:29:33;;;;;;;;;;;19.50;56.30;;;;;;5051402;28;1304;-71
2022/01/17 05:31:58;;;;;;;;;;;19.60;56.00;;;;;;5052888;28;1354;-71
2022/01/17 05:34:24;;;;;;;;;;;19.70;55.70;;;;;;5052841;28;1001;-71
2022/01/17 05:36:49;;;;;;;;;;;19.80;55.40;;;;;;5052563;28;1082;-71
2022/01/17 05:39:15;;;;;;;;;;;20.00;55.20;;;;;;5052187;28;1184;-71
2022/01/17 05:41:41;;;;;;;;;;;20.10;54.90;;;;;;5052688;28;1392;-70
2022/01/17 05:44:06;;;;;;;;;;;20.20;54.60;;;;;;5051478;28;1918;-70
2022/01/17 05:46:32;;;;;;;;;;;20.30;54.30;;;;;;5052703;28;1091;-71
2022/01/17 05:48:57;;;;;;;;;;;20.40;54.10;;;;;;5052269;28;1596;-71
2022/01/17 05:51:22;;;;;;;;;;;20.50;53.90;;;;;;5052360;28;1099;-70
2022/01/17 05:53:48;;;;;;;;;;;20.60;53.70;;;;;;5056391;28;1399;-71
2022/01/17 05:56:13;;;;;;;;;;;20.60;53.50;;;;;;5056697;28;1374;-71
2022/01/17 05:58:39;;;;;;;;;;;20.70;53.40;;;;;;5056352;28;1276;-71
2022/01/17 06:01:05;;;;;;;;;;;20.70;53.20;;;;;;5056708;28;1087;-71
2022/01/17 06:03:32;;;;;;;;;;;20.80;53.10;;;;;;5056572;28;1914;-71
2022/01/17 06:05:57;;;;;;;;;;;20.80;52.90;;;;;;5056284;28;1066;-70
2022/01/17 06:08:23;;;;;;;;;;;20.90;53.40;;;;;;5056452;28;1295;-70
2022/01/17 06:10:48;;;;;;;;;;;20.90;52.70;;;;;;5056280;28;1229;-71
2022/01/17 06:13:13;;;;;;;;;;;21.00;52.70;;;;;;5056521;28;1082;-71
2022/01/17 06:15:39;;;;;;;;;;;21.00;52.60;;;;;;5056283;28;1047;-71
2022/01/17 06:18:04;;;;;;;;;;;21.10;52.50;;;;;;5056154;28;1286;-70
2022/01/17 06:20:30;;;;;;;;;;;21.10;52.50;;;;;;5054658;28;1110;-70
2022/01/17 06:22:55;;;;;;;;;;;21.10;52.40;;;;;;5044453;28;1076;-71
2022/01/17 06:25:20;;;;;;;;;;;21.20;52.90;;;;;;5054953;28;1947;-71
2022/01/17 06:27:46;;;;;;;;;;;21.20;52.30;;;;;;5055981;28;1280;-70
2022/01/17 06:30:13;;;;;;;;;;;21.20;52.20;;;;;;5056076;28;1333;-71
2022/01/17 06:32:39;;;;;;;;;;;21.30;52.20;;;;;;5054932;28;1374;-71
2022/01/17 06:35:04;;;;;;;;;;;21.30;52.20;;;;;;5055854;28;1076;-70
2022/01/17 06:37:30;;;;;;;;;;;21.30;52.10;;;;;;5056026;28;1286;-71
2022/01/17 06:39:55;;;;;;;;;;;21.30;52.10;;;;;;5055728;28;1079;-70
2022/01/17 06:42:21;;;;;;;;;;;21.30;52.00;;;;;;5056244;28;1102;-71
2022/01/17 06:44:47;;;;;;;;;;;21.40;52.10;;;;;;5054417;28;1898;-71
2022/01/17 06:47:12;;;;;;;;;;;21.40;52.00;;;;;;5055675;28;1372;-71
2022/01/17 06:49:38;;;;;;;;;;;21.40;52.10;;;;;;5055329;28;1357;-71
2022/01/17 06:52:03;;;;;;;;;;;21.40;52.10;;;;;;5038065;28;1383;-71
2022/01/17 06:54:29;;;;;;;;;;;21.40;52.10;;;;;;5055878;28;1393;-71
2022/01/17 06:56:54;;;;;;;;;;;21.40;52.10;;;;;;5055584;28;1280;-71
2022/01/17 06:59:20;;;;;;;;;;;21.40;52.10;;;;;;5055151;28;1178;-71
2022/01/17 07:01:45;;;;;;;;;;;21.40;52.20;;;;;;5048541;28;1224;-71
2022/01/17 07:04:11;;;;;;;;;;;21.40;52.20;;;;;;5048028;28;1902;-71
2022/01/17 07:06:38;;;;;;;;;;;21.40;52.20;;;;;;5055449;28;1370;-71
2022/01/17 07:09:05;;;;;;;;;;;21.40;52.20;;;;;;5054984;28;1224;-70
2022/01/17 07:11:31;;;;;;;;;;;21.40;52.20;;;;;;5042186;28;1082;-71
2022/01/17 07:13:56;;;;;;;;;;;21.40;52.20;;;;;;5055314;28;1078;-71
2022/01/17 07:16:23;;;;;;;;;;;21.40;52.20;;;;;;5055238;28;1318;-71
2022/01/17 07:18:48;;;;;;;;;;;21.40;52.20;;;;;;5054893;28;1336;-70
2022/01/17 07:21:13;;;;;;;;;;;21.40;52.20;;;;;;5055080;28;1526;-71
2022/01/17 07:23:39;;;;;;;;;;;21.30;52.20;;;;;;5055156;28;1906;-71
2022/01/17 07:26:04;;;;;;;;;;;21.30;52.20;;;;;;5054998;28;1039;-71
2022/01/17 07:28:30;;;;;;;;;;;21.30;52.30;;;;;;5054817;28;1216;-71
2022/01/17 07:30:55;;;;;;;;;;;21.30;52.30;;;;;;5054861;28;1348;-71
2022/01/17 07:33:22;;;;;;;;;;;21.30;52.40;;;;;;5055063;28;1377;-71
2022/01/17 07:35:48;;;;;;;;;;;21.20;52.30;;;;;;5054868;28;1135;-71
2022/01/17 07:38:13;;;;;;;;;;;21.20;53.00;;;;;;5053446;28;1287;-71
2022/01/17 07:40:39;;;;;;;;;;;21.20;52.50;;;;;;5054696;28;1365;-71
2022/01/17 07:43:04;;;;;;;;;;;21.20;52.60;;;;;;5055023;28;1201;-71
2022/01/17 07:45:31;;;;;;;;;;;21.20;52.60;;;;;;5054555;28;1906;-71
2022/01/17 07:48:11;;;;;;;;;;;21.10;52.60;;;;;;5054052;28;1376;-71
2022/01/17 07:50:36;;;;;;;;;;;21.10;52.70;;;;;;5045630;28;1345;-68
2022/01/17 07:53:02;;;;;;;;;;;21.10;52.70;;;;;;5054387;28;1274;-71
2022/01/17 07:55:27;;;;;;;;;;;21.10;51.10;;;;;;5054035;28;1407;-71
2022/01/17 07:57:54;;;;;;;;;;;21.00;51.40;;;;;;5053174;28;1382;-71
2022/01/17 08:00:22;;;;;;;;;;;21.00;51.70;;;;;;5052055;28;1447;-71
2022/01/17 08:02:51;;;;;;;;;;;21.00;52.20;;;;;;5052021;28;1405;-70
2022/01/17 08:05:16;;;;;;;;;;;21.00;52.30;;;;;;5052124;28;1918;-71
2022/01/17 08:07:42;;;;;;;;;;;21.00;52.70;;;;;;5051818;28;1479;-71
2022/01/17 08:10:12;;;;;;;;;;;21.10;52.90;;;;;;5051088;28;1423;-71
2022/01/17 08:12:41;;;;;;;;;;;21.10;52.80;;;;;;5052525;28;1448;-71
2022/01/17 08:15:07;;;;;;;;;;;21.10;53.10;;;;;;5051702;28;1361;-71
2022/01/17 08:17:32;;;;;;;;;;;21.10;53.30;;;;;;5052670;28;1448;-71
2022/01/17 08:19:57;;;;;;;;;;;21.00;53.60;;;;;;5053460;28;1384;-71
2022/01/17 08:22:23;;;;;;;;;;;21.00;53.70;;;;;;5034381;28;1928;-72
2022/01/17 08:24:48;;;;;;;;;;;21.00;53.90;;;;;;5052655;28;1986;-72
2022/01/17 08:27:14;;;;;;;;;;;21.00;54.10;;;;;;5043459;28;1367;-73
2022/01/17 08:29:42;;;;;;;;;;;21.00;54.10;;;;;;5046998;28;1367;-72
2022/01/17 08:32:07;;;;;;;;;;;21.00;54.20;;;;;;5052174;28;1848;-73
2022/01/17 08:34:33;;;;;;;;;;;21.00;54.40;;;;;;5040431;28;1473;-72
2022/01/17 08:36:58;;;;;;;;;;;21.00;54.50;;;;;;5052045;28;1530;-74
2022/01/17 08:39:24;;;;;;;;;;;21.00;54.60;;;;;;5047236;28;1925;-71
2022/01/17 08:41:50;;;;;;;;;;;20.90;54.60;;;;;;5050472;28;1552;-74
2022/01/17 08:44:18;;;;;;;;;;;20.90;54.60;;;;;;5049441;28;1972;-74
2022/01/17 08:46:44;;;;;;;;;;;20.90;54.70;;;;;;5046913;28;1419;-74
2022/01/17 08:49:09;;;;;;;;;;;21.00;54.90;;;;;;5048532;28;1711;-71
2022/01/17 08:51:35;;;;;;;;;;;20.90;54.90;;;;;;5053167;28;1666;-71
2022/01/17 08:54:00;;;;;;;;;;;20.90;54.90;;;;;;5052656;28;1268;-71
2022/01/17 08:56:28;;;;;;;;;;;20.90;55.00;;;;;;5051943;28;1598;-71
2022/01/17 08:58:54;;;;;;;;;;;20.90;55.00;;;;;;5052539;28;1685;-72
2022/01/17 09:01:19;;;;;;;;;;;20.90;55.20;;;;;;5049794;28;1769;-72
2022/01/17 09:03:45;;;;;;;;;;;20.90;55.30;;;;;;5042090;28;1902;-70
2022/01/17 09:06:10;;;;;;;;;;;20.90;55.30;;;;;;5052790;28;1575;-71
2022/01/17 09:08:36;;;;;;;;;;;20.90;55.40;;;;;;5052622;28;1380;-70
2022/01/17 09:11:01;;;;;;;;;;;20.90;55.40;;;;;;5052576;28;1489;-73
2022/01/17 09:13:27;;;;;;;;;;;20.90;55.40;;;;;;5045153;28;1308;-69
2022/01/17 09:15:53;;;;;;;;;;;20.90;55.50;;;;;;5040693;28;2073;-71
2022/01/17 09:18:19;;;;;;;;;;;20.80;55.50;;;;;;5027866;28;1643;-71
2022/01/17 09:20:45;;;;;;;;;;;20.90;55.50;;;;;;5051731;28;1816;-67
2022/01/17 09:23:10;;;;;;;;;;;20.90;55.60;;;;;;5049760;28;1906;-67
2022/01/17 09:25:35;;;;;;;;;;;20.90;55.70;;;;;;5050868;28;1349;-68
2022/01/17 09:28:01;;;;;;;;;;;20.90;55.80;;;;;;5049160;28;1598;-69
2022/01/17 09:30:26;;;;;;;;;;;20.90;55.80;;;;;;5051317;28;1687;-68
2022/01/17 09:32:52;;;;;;;;;;;20.90;55.80;;;;;;5052216;28;811;-70
2022/01/17 09:35:18;;;;;;;;;;;20.90;55.80;;;;;;5051394;28;1658;-67
2022/01/17 09:37:43;;;;;;;;;;;20.80;55.80;;;;;;5047762;28;2140;-70
2022/01/17 09:40:09;;;;;;;;;;;20.80;55.90;;;;;;5049873;28;1926;-72
2022/01/17 09:42:36;;;;;;;;;;;20.80;56.00;;;;;;5049728;28;1871;-72
2022/01/17 09:45:09;;;;;;;;;;;20.80;56.00;;;;;;5042395;28;1912;-71
2022/01/17 09:47:36;;;;;;;;;;;20.80;56.00;;;;;;5051215;28;1408;-70
2022/01/17 09:50:02;;;;;;;;;;;20.80;56.10;;;;;;5045689;28;2136;-71
2022/01/17 09:52:34;;;;;;;;;;;20.80;56.20;;;;;;5042813;28;1482;-71
2022/01/17 09:55:00;;;;;;;;;;;20.80;56.20;;;;;;5039332;28;1158;-70
2022/01/17 09:57:27;;;;;;;;;;;20.80;56.20;;;;;;5040706;28;1283;-71
2022/01/17 09:59:52;;;;;;;;;;;20.90;56.10;;;;;;5051273;28;1338;-70
2022/01/17 10:02:17;;;;;;;;;;;20.90;56.40;;;;;;5052519;28;1177;-70
2022/01/17 10:04:43;;;;;;;;;;;20.90;56.40;;;;;;5045536;28;1929;-69
2022/01/17 10:07:08;;;;;;;;;;;21.00;56.20;;;;;;5048923;28;1415;-70
2022/01/17 10:09:34;;;;;;;;;;;21.00;56.50;;;;;;5042146;28;1938;-70
2022/01/17 10:12:03;;;;;;;;;;;21.00;56.40;;;;;;5048715;28;1252;-70
2022/01/17 10:14:31;;;;;;;;;;;21.10;56.30;;;;;;5050559;28;1331;-70
2022/01/17 10:16:56;;;;;;;;;;;21.10;56.30;;;;;;5048362;28;1889;-70
2022/01/17 10:19:21;;;;;;;;;;;21.10;56.30;;;;;;5046844;28;1468;-70
2022/01/17 10:21:51;;;;;;;;;;;21.10;56.30;;;;;;5037476;28;1282;-70
2022/01/17 10:37:06;;;;;;;;;;;21.10;56.70;;;;;;5052123;28;1282;-70
2022/01/17 10:39:31;;;;;;;;;;;21.10;56.70;;;;;;5053396;28;1212;-70
2022/01/17 10:41:57;;;;;;;;;;;21.10;56.70;;;;;;5053886;28;2007;-70
2022/01/17 10:44:32;;;;;;;;;;;21.10;56.90;;;;;;5048242;28;1942;-70
2022/01/17 10:47:16;;;;;;;;;;;21.10;56.80;;;;;;5043701;28;1713;-70
2022/01/17 10:49:54;;;;;;;;;;;21.10;56.80;;;;;;5051299;28;1941;-70
2022/01/17 10:52:30;;;;;;;;;;;21.10;57.00;;;;;;5049189;28;2306;-71
2022/01/17 10:54:59;;;;;;;;;;;21.10;57.10;;;;;;5054452;28;1145;-70
2022/01/17 10:57:25;;;;;;;;;;;21.10;57.10;;;;;;5052157;28;1247;-70
2022/01/17 10:59:51;;;;;;;;;;;21.10;57.20;;;;;;5054017;28;1276;-70
2022/01/17 11:02:17;;;;;;;;;;;21.10;57.30;;;;;;5042504;28;1153;-70
2022/01/17 11:04:42;;;;;;;;;;;21.10;57.60;;;;;;5052127;28;1898;-70
2022/01/17 11:07:08;;;;;;;;;;;21.10;57.60;;;;;;5054169;28;1087;-70
2022/01/17 11:09:37;;;;;;;;;;;21.10;57.80;;;;;;5046663;28;1464;-70
2022/01/17 11:12:07;;;;;;;;;;;21.10;57.60;;;;;;5054003;28;1232;-71
2022/01/17 11:14:35;;;;;;;;;;;21.00;57.50;;;;;;5055073;28;1251;-71
2022/01/17 11:17:04;;;;;;;;;;;21.00;57.50;;;;;;5053954;28;1338;-71
2022/01/17 11:22:14;;;;;;;;;;;21.00;57.50;;;;;;5054394;28;1185;-71
2022/01/17 11:24:39;;;;;;;;;;;21.00;57.40;;;;;;5053434;28;1890;-71
2022/01/17 11:27:04;;;;;;;;;;;21.00;57.50;;;;;;5053710;28;1591;-70
2022/01/17 11:29:30;;;;;;;;;;;21.00;57.50;;;;;;5053483;28;1582;-70
2022/01/17 11:31:55;;;;;;;;;;;21.00;57.50;;;;;;5053825;28;1588;-71
2022/01/17 11:34:21;;;;;;;;;;;21.00;57.40;;;;;;5054932;28;1565;-71
2022/01/17 11:36:46;;;;;;;;;;;21.00;57.40;;;;;;5053409;28;1416;-71
2022/01/17 11:39:15;;;;;;;;;;;21.00;57.40;;;;;;5053957;28;1606;-71
2022/01/17 11:41:44;;;;;;;;;;;21.00;57.40;;;;;;5053321;28;1669;-69
2022/01/17 11:44:10;;;;;;;;;;;21.00;57.20;;;;;;5052345;28;1965;-70
2022/01/17 11:46:43;;;;;;;;;;;21.00;57.20;;;;;;5054363;28;1580;-70
2022/01/17 11:49:09;;;;;;;;;;;21.00;57.20;;;;;;5053979;28;1605;-69
2022/01/17 11:51:36;;;;;;;;;;;21.00;57.30;;;;;;5046929;28;2151;-68
2022/01/17 11:54:07;;;;;;;;;;;21.00;57.20;;;;;;5042431;28;1461;-70
2022/01/17 11:56:37;;;;;;;;;;;21.00;57.20;;;;;;5048940;28;1608;-70
2022/01/17 11:59:21;;;;;;;;;;;21.00;57.70;;;;;;5051537;28;1403;-70
2022/01/17 12:02:06;;;;;;;;;;;21.00;57.00;;;;;;5050227;28;1559;-69
2022/01/17 12:04:32;;;;;;;;;;;21.00;57.00;;;;;;5054353;28;1902;-69
2022/01/17 12:07:00;;;;;;;;;;;21.00;56.90;;;;;;5054302;28;1243;-69
2022/01/17 12:09:25;;;;;;;;;;;21.00;56.80;;;;;;5044161;28;1324;-69
2022/01/17 12:12:03;;;;;;;;;;;21.00;56.90;;;;;;5045023;28;1572;-70
2022/01/17 12:14:32;;;;;;;;;;;21.00;56.80;;;;;;5054356;28;1746;-69
2022/01/17 12:17:31;;;;;;;;;;;21.00;57.00;;;;;;5052893;28;1665;-68
2022/01/17 12:20:14;;;;;;;;;;;21.00;57.00;;;;;;5011513;28;1295;-70
2022/01/17 12:22:39;;;;;;;;;;;21.00;57.00;;;;;;5052785;28;1710;-69
2022/01/17 12:25:26;;;;;;;;;;;21.00;57.00;;;;;;5053505;28;1953;-70
2022/01/17 12:28:04;;;;;;;;;;;21.00;57.10;;;;;;5043165;28;1960;-70
2022/01/17 12:30:46;;;;;;;;;;;21.00;57.10;;;;;;5047271;28;2308;-69
2022/01/17 12:33:30;;;;;;;;;;;21.10;57.10;;;;;;5046916;28;1535;-68
2022/01/17 12:35:55;;;;;;;;;;;21.10;57.10;;;;;;5052009;28;1647;-68
2022/01/17 12:38:31;;;;;;;;;;;21.00;57.00;;;;;;5053577;28;1635;-68
2022/01/17 12:40:56;;;;;;;;;;;21.00;57.00;;;;;;5052211;28;1686;-68
2022/01/17 12:43:27;;;;;;;;;;;21.00;57.20;;;;;;5041780;28;1910;-69
2022/01/17 12:45:55;;;;;;;;;;;21.00;57.10;;;;;;5053170;28;1214;-69
2022/01/17 12:48:21;;;;;;;;;;;21.00;57.10;;;;;;5051224;28;1506;-69
2022/01/17 12:50:47;;;;;;;;;;;21.00;57.20;;;;;;5042276;28;2243;-69
2022/01/17 12:53:13;;;;;;;;;;;21.00;57.20;;;;;;5050956;28;1596;-69
2022/01/17 12:55:40;;;;;;;;;;;21.00;57.20;;;;;;5052293;28;1375;-68
2022/01/17 12:58:12;;;;;;;;;;;21.00;57.20;;;;;;5051878;28;1355;-71
2022/01/17 13:00:38;;;;;;;;;;;21.00;57.20;;;;;;5050401;28;1635;-71
2022/01/17 13:03:04;;;;;;;;;;;21.00;57.10;;;;;;5044756;28;1428;-71
2022/01/17 13:05:31;;;;;;;;;;;21.10;57.20;;;;;;5050489;28;2301;-70
2022/01/17 13:07:57;;;;;;;;;;;21.00;55.30;;;;;;5050074;28;1254;-71
2022/01/17 13:10:23;;;;;;;;;;;21.00;53.50;;;;;;5043694;28;1347;-71
2022/01/17 13:12:49;;;;;;;;;;;21.00;51.80;;;;;;5046193;28;1393;-70
2022/01/17 13:15:15;;;;;;;;;;;20.90;51.00;;;;;;5046101;28;1197;-71
2022/01/17 13:17:40;;;;;;;;;;;20.80;49.70;;;;;;5045392;28;1397;-71
2022/01/17 13:20:06;;;;;;;;;;;20.80;49.00;;;;;;5043507;28;1375;-70
2022/01/17 13:22:39;;;;;;;;;;;20.70;48.20;;;;;;5046195;28;1307;-69
2022/01/17 13:25:05;;;;;;;;;;;20.60;47.70;;;;;;5052912;28;1969;-71
2022/01/17 13:27:34;;;;;;;;;;;20.60;46.90;;;;;;5051217;28;1341;-71
2022/01/17 13:30:05;;;;;;;;;;;20.60;46.50;;;;;;5046930;28;1423;-71
2022/01/17 13:32:34;;;;;;;;;;;20.50;45.90;;;;;;5051341;28;1447;-71
2022/01/17 13:35:07;;;;;;;;;;;20.50;45.80;;;;;;5046701;28;1343;-71
2022/01/17 13:37:32;;;;;;;;;;;20.40;45.50;;;;;;5049573;28;1309;-70
2022/01/17 13:39:58;;;;;;;;;;;20.40;45.00;;;;;;5052218;28;1416;-71
2022/01/17 13:42:23;;;;;;;;;;;20.30;44.60;;;;;;5051403;28;1326;-72
2022/01/17 13:44:51;;;;;;;;;;;20.30;44.50;;;;;;5042846;28;1973;-71
2022/01/17 13:47:16;;;;;;;;;;;20.20;44.20;;;;;;5041983;28;1343;-70
2022/01/17 13:49:43;;;;;;;;;;;20.20;43.60;;;;;;5046021;28;1326;-70
2022/01/17 13:52:08;;;;;;;;;;;20.20;43.20;;;;;;5045101;28;1126;-71
2022/01/17 13:54:35;;;;;;;;;;;20.10;43.20;;;;;;5051348;28;1377;-69
2022/01/17 13:57:00;;;;;;;;;;;20.10;42.80;;;;;;5051321;28;2540;-70
2022/01/17 13:59:26;;;;;;;;;;;20.10;42.90;;;;;;5031254;28;1310;-71
2022/01/17 14:01:51;;;;;;;;;;;20.00;42.60;;;;;;5052217;28;1251;-69
2022/01/17 14:04:29;;;;;;;;;;;20.00;42.80;;;;;;5051548;28;1910;-70
2022/01/17 14:06:54;;;;;;;;;;;20.00;42.70;;;;;;5052602;28;916;-71
2022/01/17 14:09:30;;;;;;;;;;;20.00;42.80;;;;;;5046219;28;1294;-73
2022/01/17 14:11:55;;;;;;;;;;;19.90;42.00;;;;;;5052610;28;788;-70
2022/01/17 14:14:23;;;;;;;;;;;19.90;41.80;;;;;;5055543;28;1025;-71
2022/01/17 14:16:48;;;;;;;;;;;19.90;41.80;;;;;;5055382;28;1034;-72
2022/01/17 14:19:14;;;;;;;;;;;19.90;41.30;;;;;;5055044;28;1357;-70
2022/01/17 14:21:44;;;;;;;;;;;19.90;41.60;;;;;;5056335;28;831;-70
2022/01/17 14:24:14;;;;;;;;;;;19.80;41.70;;;;;;5038383;28;1898;-70
2022/01/17 14:26:40;;;;;;;;;;;19.80;41.50;;;;;;5055258;28;907;-71
2022/01/17 14:29:09;;;;;;;;;;;19.80;41.40;;;;;;5054802;28;1275;-70
2022/01/17 14:31:35;;;;;;;;;;;19.80;41.10;;;;;;5056064;28;799;-72
2022/01/17 14:34:11;;;;;;;;;;;19.80;41.10;;;;;;5055022;28;969;-70
2022/01/17 14:36:37;;;;;;;;;;;19.70;40.80;;;;;;5055206;28;835;-70
2022/01/17 14:39:05;;;;;;;;;;;19.70;40.50;;;;;;5054653;28;1335;-70
2022/01/17 14:41:34;;;;;;;;;;;19.70;40.30;;;;;;5056229;28;827;-71
2022/01/17 14:44:07;;;;;;;;;;;19.70;40.20;;;;;;5055928;28;1901;-70
2022/01/17 14:46:33;;;;;;;;;;;19.70;40.70;;;;;;5042587;28;1398;-68
2022/01/17 14:48:58;;;;;;;;;;;19.70;40.80;;;;;;5040323;28;1300;-67
2022/01/17 14:51:28;;;;;;;;;;;19.60;40.90;;;;;;5043041;28;1292;-68
2022/01/17 14:53:58;;;;;;;;;;;19.60;40.80;;;;;;5044757;28;1280;-71
2022/01/17 14:59:31;;;;;;;;;;;19.50;41.20;;;;;;5046080;28;1824;-69
2022/01/17 15:04:22;;;;;;;;;;;19.50;41.30;;;;;;5047384;28;1959;-69